Time;durP1;ratioP1;P1;durP2;ratioP2;P2;SDS_P1;SDS_P2;PMS_P1;PMS_P2;Temp;Humidity;BMP_temperature;BMP_pressure;BME280_temperature;BME280_humidity;BME280_pressure;Samples;Min_cycle;Max_cycle;Signal;HPM_P1;HPM_P2
2021/08/20 00:01:07;;;;;;;15.32;10.82;;;;;;;16.90;78.60;101442.97;4993371;28;20051;-62
2021/08/20 00:03:35;;;;;;;16.35;9.98;;;;;;;16.87;78.86;101443.56;4994172;28;20460;-61
2021/08/20 00:06:03;;;;;;;16.13;9.70;;;;;;;16.88;78.84;101439.69;4995810;28;20065;-61
2021/08/20 00:08:31;;;;;;;15.23;10.13;;;;;;;16.86;78.47;101439.19;4994882;28;20045;-62
2021/08/20 00:11:03;;;;;;;17.60;11.02;;;;;;;16.87;78.79;101451.00;4995347;28;20378;-62
2021/08/20 00:13:31;;;;;;;13.70;9.02;;;;;;;16.86;78.95;101439.19;4994682;28;20042;-61
2021/08/20 00:15:59;;;;;;;12.63;8.32;;;;;;;16.87;78.62;101440.81;4994487;28;20108;-61
2021/08/20 00:18:26;;;;;;;15.38;10.48;;;;;;;16.87;79.02;101432.56;4994673;28;20038;-62
2021/08/20 00:20:54;;;;;;;12.38;7.97;;;;;;;16.88;78.44;101434.19;4995397;28;20039;-62
2021/08/20 00:23:21;;;;;;;11.35;8.40;;;;;;;16.87;78.57;101427.03;4995053;28;20046;-62
2021/08/20 00:25:49;;;;;;;16.23;10.88;;;;;;;16.86;78.42;101430.94;4994923;28;20452;-58
2021/08/20 00:28:18;;;;;;;18.58;11.00;;;;;;;16.85;78.55;101428.47;4989471;28;20523;-58
2021/08/20 00:30:49;;;;;;;15.95;11.13;;;;;;;16.86;78.28;101430.06;4992584;28;20073;-59
2021/08/20 00:33:17;;;;;;;13.07;9.25;;;;;;;16.83;77.86;101431.50;4994861;28;20050;-59
2021/08/20 00:35:44;;;;;;;11.52;8.27;;;;;;;16.81;78.11;101433.72;4993139;28;20038;-61
2021/08/20 00:38:14;;;;;;;16.67;10.38;;;;;;;16.80;78.16;101434.84;5008044;28;20050;-61
2021/08/20 00:40:42;;;;;;;13.43;8.43;;;;;;;16.79;78.22;101430.47;4988579;28;20038;-59
2021/08/20 00:43:11;;;;;;;14.85;9.15;;;;;;;16.76;78.06;101426.34;4984217;28;20048;-56
2021/08/20 00:45:38;;;;;;;15.90;10.45;;;;;;;16.76;77.95;101420.00;4993211;28;20253;-59
2021/08/20 00:48:06;;;;;;;17.02;9.20;;;;;;;16.75;78.04;101426.63;4995590;28;20038;-61
2021/08/20 00:50:34;;;;;;;14.80;7.97;;;;;;;16.75;77.76;101421.13;4995586;28;20054;-61
2021/08/20 00:53:02;;;;;;;14.10;8.93;;;;;;;16.75;77.98;101418.38;4994054;28;20034;-62
2021/08/20 00:55:30;;;;;;;11.65;9.18;;;;;;;16.75;77.70;101421.13;4994234;28;20042;-60
2021/08/20 00:57:58;;;;;;;14.20;8.80;;;;;;;16.75;77.67;101421.13;4995294;28;20034;-61
2021/08/20 01:00:25;;;;;;;17.70;9.40;;;;;;;16.74;77.46;101423.06;4993157;28;20050;-62
2021/08/20 01:02:54;;;;;;;14.15;8.55;;;;;;;16.74;77.55;101419.47;4994574;28;20050;-62
2021/08/20 01:05:22;;;;;;;12.80;7.85;;;;;;;16.74;77.72;101423.06;4990221;28;20497;-62
2021/08/20 01:07:50;;;;;;;18.58;8.38;;;;;;;16.76;77.95;101415.34;4989236;28;20149;-61
2021/08/20 01:10:18;;;;;;;12.07;7.40;;;;;;;16.78;77.61;101417.78;4995380;28;20043;-61
2021/08/20 01:12:46;;;;;;;11.45;7.68;;;;;;;16.78;77.27;101412.28;4993993;28;20137;-62
2021/08/20 01:15:14;;;;;;;13.63;8.95;;;;;;;16.77;77.22;101416.16;4994075;28;20045;-62
2021/08/20 01:17:47;;;;;;;11.82;8.48;;;;;;;16.78;77.09;101413.13;4990744;28;20070;-62
2021/08/20 01:20:18;;;;;;;13.57;8.07;;;;;;;16.78;76.95;101406.75;4992087;28;20042;-61
2021/08/20 01:22:45;;;;;;;12.93;7.95;;;;;;;16.79;77.02;101402.94;4994489;28;20034;-62
2021/08/20 01:25:15;;;;;;;14.90;8.75;;;;;;;16.79;76.53;101400.19;4991071;28;20528;-61
2021/08/20 01:27:44;;;;;;;13.75;8.02;;;;;;;16.79;76.88;101397.44;5020861;28;20046;-61
2021/08/20 01:30:13;;;;;;;18.40;10.48;;;;;;;16.79;76.77;101391.94;4996086;28;20105;-60
2021/08/20 01:32:41;;;;;;;14.43;8.90;;;;;;;16.79;76.87;101397.44;4991483;28;20046;-66
2021/08/20 01:35:09;;;;;;;11.25;7.95;;;;;;;16.82;76.78;101402.34;4989984;28;20062;-58
2021/08/20 01:37:37;;;;;;;11.23;7.65;;;;;;;16.80;76.43;101410.06;4991068;28;20046;-62
2021/08/20 01:40:07;;;;;;;11.68;7.70;;;;;;;16.82;76.39;101410.59;4986656;28;20050;-60
2021/08/20 01:42:37;;;;;;;15.13;8.65;;;;;;;16.80;76.12;101412.81;4987894;28;20043;-57
2021/08/20 01:45:05;;;;;;;9.93;6.13;;;;;;;16.81;76.76;101418.03;4988319;28;20051;-56
2021/08/20 01:47:33;;;;;;;9.73;6.32;;;;;;;16.78;76.37;101406.75;4986351;28;20138;-57
2021/08/20 01:50:01;;;;;;;13.55;9.65;;;;;;;16.73;75.85;101409.59;4997380;28;20065;-61
2021/08/20 01:52:28;;;;;;;16.95;8.45;;;;;;;16.74;76.36;101413.97;4981357;28;20077;-58
2021/08/20 01:54:57;;;;;;;16.25;9.68;;;;;;;16.69;76.29;101408.53;4996557;28;20439;-57
2021/08/20 01:57:24;;;;;;;11.50;7.38;;;;;;;16.68;76.02;101412.41;4999641;28;20034;-58
2021/08/20 01:59:52;;;;;;;11.50;6.97;;;;;;;16.67;76.34;101419.00;4999915;28;20043;-56
2021/08/20 02:02:21;;;;;;;13.15;8.07;;;;;;;16.68;76.36;101417.91;4997402;28;20516;-55
2021/08/20 02:04:49;;;;;;;11.80;6.65;;;;;;;16.71;76.83;101420.06;4991199;28;20050;-58
2021/08/20 02:07:16;;;;;;;13.27;7.78;;;;;;;16.69;76.12;101414.03;4999795;28;20035;-56
2021/08/20 02:09:47;;;;;;;12.93;8.80;;;;;;;16.71;76.52;101415.38;5000496;28;20061;-57
2021/08/20 02:12:15;;;;;;;13.93;7.90;;;;;;;16.73;76.51;101415.91;4995849;28;20053;-57
2021/08/20 02:15:03;;;;;;;11.15;6.50;;;;;;;16.74;76.81;101423.06;4997416;28;20081;-57
2021/08/20 02:17:31;;;;;;;11.85;7.90;;;;;;;16.71;76.16;101425.56;4993311;28;20046;-61
2021/08/20 02:19:59;;;;;;;14.20;7.45;;;;;;;16.69;76.24;101425.03;4991571;28;20070;-60
2021/08/20 02:22:27;;;;;;;14.95;7.40;;;;;;;16.68;76.60;101420.66;4990731;28;20520;-57
2021/08/20 02:24:55;;;;;;;10.82;7.57;;;;;;;16.68;76.29;101421.47;4999902;28;20050;-57
2021/08/20 02:27:22;;;;;;;11.40;7.55;;;;;;;16.70;76.21;101429.44;4995478;28;20046;-59
2021/08/20 02:29:56;;;;;;;15.77;6.93;;;;;;;16.73;76.72;101423.34;4982311;28;20042;-59
2021/08/20 02:32:24;;;;;;;11.85;7.22;;;;;;;16.73;76.35;101420.59;4991522;28;20089;-61
2021/08/20 02:34:51;;;;;;;9.77;6.47;;;;;;;16.72;76.28;101425.28;4993013;28;20125;-60
2021/08/20 02:37:19;;;;;;;10.52;6.32;;;;;;;16.72;76.01;101421.72;4991491;28;20053;-61
2021/08/20 02:39:47;;;;;;;12.25;7.05;;;;;;;16.70;76.32;101416.50;4994111;28;20098;-61
2021/08/20 02:42:14;;;;;;;12.50;7.43;;;;;;;16.66;76.41;101426.44;4990756;28;20130;-62
2021/08/20 02:44:42;;;;;;;16.45;8.32;;;;;;;16.69;76.73;101419.53;4990640;28;20049;-61
2021/08/20 02:47:10;;;;;;;14.32;9.15;;;;;;;16.65;76.19;101427.56;4999968;28;20046;-59
2021/08/20 02:49:37;;;;;;;15.23;8.05;;;;;;;16.71;76.68;101433.81;4995432;28;20456;-59
2021/08/20 02:52:05;;;;;;;14.63;8.10;;;;;;;16.60;76.28;101422.94;4994914;28;20049;-59
2021/08/20 02:54:38;;;;;;;12.23;7.60;;;;;;;16.58;76.52;101424.34;4990205;28;20058;-57
2021/08/20 02:57:06;;;;;;;10.18;7.00;;;;;;;16.58;76.91;101419.66;4992784;28;20126;-61
2021/08/20 02:59:41;;;;;;;12.13;6.47;;;;;;;16.60;76.88;101425.69;4989583;28;20074;-58
2021/08/20 03:02:13;;;;;;;12.60;7.30;;;;;;;16.61;77.00;101421.81;4992416;28;20505;-59
2021/08/20 03:04:41;;;;;;;11.55;6.68;;;;;;;16.61;77.01;101421.81;4990164;28;20039;-61
2021/08/20 03:07:29;;;;;;;10.05;6.72;;;;;;;16.65;76.91;101418.50;5007099;28;20038;-59
2021/08/20 03:09:57;;;;;;;11.10;7.20;;;;;;;16.67;76.84;101416.25;4989825;28;20513;-61
2021/08/20 03:12:25;;;;;;;11.02;7.07;;;;;;;16.67;76.60;101416.25;4993104;28;20031;-58
2021/08/20 03:14:56;;;;;;;11.55;7.47;;;;;;;16.69;76.97;101414.03;5009427;28;20046;-60
2021/08/20 03:17:30;;;;;;;13.13;7.25;;;;;;;16.68;76.58;101417.91;4989936;28;20426;-60
2021/08/20 03:19:58;;;;;;;17.98;9.77;;;;;;;16.64;76.70;101427.84;4985537;28;20034;-58
2021/08/20 03:22:39;;;;;;;10.90;6.88;;;;;;;16.59;77.25;101424.03;4993079;28;20054;-60
2021/08/20 03:25:27;;;;;;;10.95;7.05;;;;;;;16.59;76.94;101421.28;5109745;27;20146;-57
2021/08/20 03:28:07;;;;;;;11.10;7.32;;;;;;;16.61;77.10;101419.06;5069668;28;20391;-62
2021/08/20 03:30:53;;;;;;;11.35;8.05;;;;;;;16.60;77.43;101403.69;5110694;27;20336;-59
2021/08/20 03:33:33;;;;;;;10.98;7.55;;;;;;;16.57;77.30;101396.03;5070475;28;20395;-61
2021/08/20 03:36:24;;;;;;;10.70;6.55;;;;;;;16.58;77.50;101403.16;5109991;27;1226699;-61
2021/08/20 03:39:07;;;;;;;15.60;9.82;;;;;;;16.58;77.28;101397.66;5109956;27;20473;-62
2021/08/20 03:41:48;;;;;;;11.35;8.07;;;;;;;16.56;77.26;101408.13;5070013;28;20828;-61
2021/08/20 03:44:30;;;;;;;11.30;7.85;;;;;;;16.52;77.60;101412.56;5069888;28;20394;-61
2021/08/20 03:47:09;;;;;;;10.48;7.50;;;;;;;16.52;77.71;101415.31;5101691;27;1212212;-61
2021/08/20 03:49:48;;;;;;;12.05;8.15;;;;;;;16.51;78.20;101415.66;5110711;27;20450;-56
2021/08/20 03:52:30;;;;;;;14.82;7.22;;;;;;;16.52;78.02;101415.31;5069494;28;20390;-54
2021/08/20 03:55:11;;;;;;;13.85;9.07;;;;;;;16.53;77.80;101422.50;5069350;28;20737;-59
2021/08/20 03:58:04;;;;;;;11.43;8.50;;;;;;;16.50;77.84;101423.09;5069656;28;20453;-58
2021/08/20 04:00:51;;;;;;;14.20;10.18;;;;;;;16.48;78.26;101414.31;5069761;28;20390;-56
2021/08/20 04:03:33;;;;;;;12.40;8.20;;;;;;;16.49;78.31;101415.94;5069646;28;20454;-59
2021/08/20 04:06:16;;;;;;;14.10;9.52;;;;;;;16.48;78.40;101419.81;5069671;28;20390;-57
2021/08/20 04:08:57;;;;;;;16.65;10.60;;;;;;;16.44;78.59;101413.25;5089362;28;20451;-58
2021/08/20 04:11:45;;;;;;;13.60;8.95;;;;;;;16.44;78.89;101418.75;5097594;27;1230957;-60
2021/08/20 04:14:33;;;;;;;14.45;8.52;;;;;;;16.44;78.74;101415.19;5069555;28;20492;-59
2021/08/20 04:17:15;;;;;;;14.77;9.65;;;;;;;16.45;78.80;101423.16;5069554;28;20454;-58
2021/08/20 04:19:54;;;;;;;12.55;8.45;;;;;;;16.45;78.99;101425.06;5069605;28;20488;-59
2021/08/20 04:22:36;;;;;;;12.85;8.05;;;;;;;16.48;79.03;101421.75;5068975;28;20480;-59
2021/08/20 04:25:16;;;;;;;13.00;7.82;;;;;;;16.47;79.24;101426.41;5069711;28;20386;-60
2021/08/20 04:28:14;;;;;;;12.93;7.80;;;;;;;16.50;79.15;101433.25;5069650;28;20823;-61
2021/08/20 04:31:06;;;;;;;14.70;8.02;;;;;;;16.52;78.97;101425.53;5069309;28;20757;-56
2021/08/20 04:34:05;;;;;;;11.68;7.53;;;;;;;16.50;79.33;101434.09;5069599;28;20387;-60
2021/08/20 04:37:02;;;;;;;11.65;7.55;;;;;;;16.50;79.31;101427.75;5099291;27;1227808;-60
2021/08/20 04:40:07;;;;;;;13.32;7.53;;;;;;;16.52;79.64;101431.84;5106451;27;1234749;-62
2021/08/20 04:43:04;;;;;;;12.45;8.75;;;;;;;16.52;79.75;101429.09;5110745;27;1240780;-60
2021/08/20 04:45:57;;;;;;;12.50;8.55;;;;;;;16.53;79.87;101428.00;5109145;27;20392;-60
2021/08/20 04:48:59;;;;;;;13.57;9.52;;;;;;;16.51;80.07;101440.41;5089996;28;20986;-59
2021/08/20 04:51:58;;;;;;;12.75;9.05;;;;;;;16.50;80.01;101439.59;5089421;27;20883;-62
2021/08/20 04:54:43;;;;;;;12.55;8.20;;;;;;;16.50;80.26;101438.75;5069603;28;20391;-62
2021/08/20 04:57:24;;;;;;;14.63;9.38;;;;;;;16.49;80.63;101440.69;5069698;28;20383;-62
2021/08/20 05:00:21;;;;;;;12.88;8.43;;;;;;;16.50;80.63;101444.25;5148840;27;20918;-59
2021/08/20 05:03:23;;;;;;;12.95;8.88;;;;;;;16.48;80.83;101447.31;5132739;27;20407;-57
2021/08/20 05:06:30;;;;;;;14.13;8.40;;;;;;;16.46;81.00;101449.53;5148397;27;20838;-58
2021/08/20 05:09:41;;;;;;;15.27;9.77;;;;;;;16.47;81.00;101453.91;5132261;27;20822;-60
2021/08/20 05:12:44;;;;;;;11.68;7.88;;;;;;;16.47;81.11;101453.91;5131730;27;20396;-58
2021/08/20 05:15:26;;;;;;;14.63;10.03;;;;;;;16.48;81.18;101454.75;4415453;27;20801656;-58
2021/08/20 05:18:21;;;;;;;18.83;10.18;;;;;;;16.47;81.63;101458.59;5091648;27;20400;-58
2021/08/20 05:21:18;;;;;;;13.57;8.85;;;;;;;16.49;81.74;101450.88;5192609;27;20430;-58
2021/08/20 05:24:12;;;;;;;11.85;7.90;;;;;;;16.52;81.79;101456.59;5090261;27;20406;-58
2021/08/20 05:27:10;;;;;;;13.63;8.35;;;;;;;16.54;81.96;101450.81;5193360;27;20714;-55
2021/08/20 05:30:04;;;;;;;13.82;9.30;;;;;;;16.55;81.79;101450.53;5090045;27;20407;-59
2021/08/20 05:32:44;;;;;;;14.68;8.40;;;;;;;16.56;81.77;101449.41;5069539;28;21116;-55
2021/08/20 05:35:25;;;;;;;10.80;7.33;;;;;;;16.59;81.59;101459.81;4383281;27;9999956;-59
2021/08/20 05:38:06;;;;;;;11.40;8.00;;;;;;;16.62;81.92;101458.44;5067460;28;20390;-56
2021/08/20 05:40:47;;;;;;;15.75;9.48;;;;;;;16.60;82.19;101464.22;5067430;28;20723;-57
2021/08/20 05:43:29;;;;;;;12.65;8.75;;;;;;;16.62;82.27;101466.69;5067410;28;20379;-55
2021/08/20 05:46:11;;;;;;;10.60;6.90;;;;;;;16.63;81.72;101468.31;5104529;27;20811;-59
2021/08/20 05:48:51;;;;;;;13.35;6.95;;;;;;;16.65;81.62;101474.34;5087458;27;20451;-55
2021/08/20 05:51:29;;;;;;;12.52;8.02;;;;;;;16.65;81.99;101479.03;5104303;27;1229404;-56
2021/08/20 05:54:07;;;;;;;10.32;5.82;;;;;;;16.65;81.59;101473.53;5101330;27;1237044;-60
2021/08/20 05:56:46;;;;;;;9.70;6.60;;;;;;;16.65;82.01;101484.53;5077093;27;1269449;-55
2021/08/20 05:59:25;;;;;;;8.00;5.25;;;;;;;16.65;81.70;101479.03;5106953;27;20392;-57
2021/08/20 06:02:05;;;;;;;13.02;8.02;;;;;;;16.68;81.81;101486.69;5058600;28;20727;-59
2021/08/20 06:04:43;;;;;;;13.05;8.00;;;;;;;16.68;82.11;101494.94;5101844;27;1234679;-59
2021/08/20 06:07:23;;;;;;;10.35;6.38;;;;;;;16.67;82.44;101496.91;5051682;28;20384;-59
2021/08/20 06:10:02;;;;;;;11.90;7.90;;;;;;;16.66;82.57;101492.50;5106658;27;1229753;-61
2021/08/20 06:12:46;;;;;;;10.98;5.93;;;;;;;16.67;82.17;101496.91;5047549;28;20482;-57
2021/08/20 06:15:27;;;;;;;9.60;5.82;;;;;;;16.66;82.75;101502.69;5075100;28;20386;-60
2021/08/20 06:18:06;;;;;;;9.60;6.00;;;;;;;16.66;82.66;101502.69;5106749;27;1233704;-59
2021/08/20 06:20:45;;;;;;;9.82;6.00;;;;;;;16.69;82.30;101502.94;5053327;28;20963;-60
2021/08/20 06:23:26;;;;;;;9.73;5.38;;;;;;;16.72;81.93;101498.78;5057484;28;20462;-59
2021/08/20 06:26:08;;;;;;;10.23;5.07;;;;;;;16.79;81.37;101497.31;5050758;28;20392;-58
2021/08/20 06:28:48;;;;;;;9.18;4.70;;;;;;;16.76;82.06;101497.91;5055331;28;20396;-59
2021/08/20 06:31:29;;;;;;;11.75;7.35;;;;;;;16.79;82.24;101497.31;5047302;28;20478;-55
2021/08/20 06:34:10;;;;;;;12.68;6.15;;;;;;;16.81;81.97;101499.78;5054345;28;20408;-62
2021/08/20 06:36:49;;;;;;;10.20;5.90;;;;;;;16.85;82.15;101500.03;5059387;28;20455;-57
2021/08/20 06:39:27;;;;;;;9.23;6.07;;;;;;;16.95;81.01;101500.69;5105049;27;1227247;-54
2021/08/20 06:42:07;;;;;;;8.25;5.18;;;;;;;16.93;80.88;101500.19;5057966;28;20485;-56
2021/08/20 06:44:45;;;;;;;10.50;7.30;;;;;;;16.92;82.23;101494.97;5089392;27;1216930;-57
2021/08/20 06:47:24;;;;;;;9.38;6.20;;;;;;;16.91;81.45;101507.94;5106933;27;1221459;-56
2021/08/20 06:50:03;;;;;;;11.80;6.18;;;;;;;16.97;81.74;101505.91;5050468;28;21005;-58
2021/08/20 06:52:43;;;;;;;9.55;5.53;;;;;;;16.98;81.35;101502.88;5054876;28;20392;-59
2021/08/20 06:55:23;;;;;;;11.20;6.88;;;;;;;17.02;81.40;101505.84;5067400;28;20488;-56
2021/08/20 06:58:03;;;;;;;13.68;8.52;;;;;;;16.99;82.08;101510.00;5069480;28;20387;-57
2021/08/20 07:00:42;;;;;;;12.30;8.55;;;;;;;16.95;83.16;101516.41;5151322;27;20377;-60
2021/08/20 07:03:23;;;;;;;10.48;6.07;;;;;;;16.97;82.51;101516.94;5069252;28;20441;-58
2021/08/20 07:06:02;;;;;;;10.57;7.32;;;;;;;16.96;82.85;101516.13;5102449;27;1240547;-58
2021/08/20 07:08:42;;;;;;;10.93;7.43;;;;;;;16.99;82.23;101515.53;5069501;28;20389;-59
2021/08/20 07:11:24;;;;;;;9.50;5.57;;;;;;;17.06;80.72;101511.59;5069667;28;20449;-60
2021/08/20 07:14:03;;;;;;;12.38;6.45;;;;;;;17.17;80.96;101515.84;5089700;28;20394;-59
2021/08/20 07:16:43;;;;;;;12.55;6.63;;;;;;;17.18;80.79;101504.53;5069175;28;20889;-60
2021/08/20 07:19:23;;;;;;;12.40;7.40;;;;;;;17.16;81.90;101517.78;5069718;28;20387;-58
2021/08/20 07:22:01;;;;;;;12.40;7.50;;;;;;;17.20;81.71;101523.53;5100966;27;1236581;-60
2021/08/20 07:24:41;;;;;;;12.85;8.25;;;;;;;17.24;82.34;101519.06;5069707;28;20496;-59
2021/08/20 07:27:21;;;;;;;18.83;9.03;;;;;;;17.33;81.46;101520.03;5094548;27;1239792;-59
2021/08/20 07:30:01;;;;;;;14.00;10.20;;;;;;;17.32;82.88;101521.16;5069358;28;20382;-55
2021/08/20 07:32:40;;;;;;;13.93;10.10;;;;;;;17.34;82.89;101518.94;5069137;28;20833;-56
2021/08/20 07:35:20;;;;;;;18.00;7.43;;;;;;;17.32;81.60;101521.16;5069676;28;20386;-56
2021/08/20 07:38:00;;;;;;;15.75;8.50;;;;;;;17.35;81.92;101517.81;5069387;28;20476;-53
2021/08/20 07:40:40;;;;;;;14.57;8.50;;;;;;;17.34;82.82;101524.44;5069624;28;20441;-56
2021/08/20 07:43:20;;;;;;;20.23;7.90;;;;;;;17.40;80.90;101527.94;5110130;27;20453;-56
2021/08/20 07:45:59;;;;;;;17.88;8.27;;;;;;;17.38;81.54;101530.16;5068867;28;20391;-57
2021/08/20 07:48:41;;;;;;;12.93;8.40;;;;;;;17.37;82.02;101518.34;5069582;28;20408;-57
2021/08/20 07:51:20;;;;;;;15.10;6.90;;;;;;;17.45;80.31;101514.91;5069459;28;21002;-57
2021/08/20 07:54:00;;;;;;;15.27;9.82;;;;;;;17.48;81.38;101524.50;5069733;28;20738;-56
2021/08/20 07:56:41;;;;;;;13.27;9.20;;;;;;;17.48;82.00;101527.25;5069290;28;20378;-55
2021/08/20 07:59:21;;;;;;;14.23;11.02;;;;;;;17.48;82.55;101521.75;5069351;28;20394;-59
2021/08/20 08:02:00;;;;;;;13.70;8.63;;;;;;;17.56;80.91;101525.81;5069198;28;20391;-58
2021/08/20 08:05:22;;;;;;;17.83;8.60;;;;;;;17.61;80.99;101528.47;4619929;27;15050789;-57
2021/08/20 08:08:19;;;;;;;17.27;9.40;;;;;;;17.68;80.66;101534.44;5193004;27;20482;-55
2021/08/20 08:11:31;;;;;;;19.17;9.02;;;;;;;17.74;80.93;101540.69;5148979;27;20578;-56
2021/08/20 08:14:30;;;;;;;16.73;10.00;;;;;;;17.80;81.18;101532.06;5192866;27;20734;-55
2021/08/20 08:17:26;;;;;;;15.00;10.20;;;;;;;17.76;81.81;101539.25;5090602;27;20935;-55
2021/08/20 08:20:19;;;;;;;16.58;10.95;;;;;;;17.79;81.02;101537.84;5090225;27;20400;-56
2021/08/20 08:23:14;;;;;;;15.90;9.82;;;;;;;17.84;80.94;101537.78;5091907;27;20769;-56
2021/08/20 08:25:53;;;;;;;20.23;15.57;;;;;;;17.79;82.71;101535.91;4620056;27;15055301;-55
2021/08/20 08:28:31;;;;;;;18.45;14.70;;;;;;;17.78;82.32;101537.03;4498298;27;18597008;-55
2021/08/20 08:31:21;;;;;;;17.77;14.00;;;;;;;17.78;82.10;101537.03;5009552;28;20386;-55
2021/08/20 08:34:18;;;;;;;17.95;14.70;;;;;;;17.74;82.74;101548.94;5090339;27;20415;-55
2021/08/20 08:37:14;;;;;;;18.05;14.35;;;;;;;17.74;83.16;101548.94;5090341;27;20403;-55
2021/08/20 08:40:26;;;;;;;18.90;15.77;;;;;;;17.72;83.68;101546.47;5132005;27;20383;-52
2021/08/20 08:43:19;;;;;;;14.25;10.10;;;;;;;17.82;82.02;101545.53;5089725;27;20400;-56
2021/08/20 08:46:09;;;;;;;16.50;12.80;;;;;;;17.85;82.01;101545.78;4606935;27;15045806;-56
2021/08/20 08:48:49;;;;;;;20.10;16.00;;;;;;;17.90;82.59;101549.56;5069584;28;20387;-56
2021/08/20 08:51:28;;;;;;;16.48;13.40;;;;;;;17.87;82.79;101554.56;5069351;28;20450;-56
2021/08/20 08:54:13;;;;;;;18.15;14.05;;;;;;;17.94;81.99;101553.34;5103240;27;1226923;-54
2021/08/20 08:56:53;;;;;;;16.20;12.60;;;;;;;17.99;81.34;101554.09;5069266;28;20600;-55
2021/08/20 08:59:39;;;;;;;17.67;13.65;;;;;;;17.99;81.81;101558.78;5069060;28;20059;-53
2021/08/20 09:02:24;;;;;;;13.63;9.10;;;;;;;18.00;81.24;101552.16;5069526;28;20473;-57
2021/08/20 09:05:05;;;;;;;13.25;9.10;;;;;;;18.09;80.58;101551.19;5127745;27;1232400;-56
2021/08/20 09:07:54;;;;;;;11.45;8.57;;;;;;;18.10;80.84;101549.22;5069593;28;20496;-55
2021/08/20 09:10:33;;;;;;;14.38;9.70;;;;;;;18.19;79.85;101555.72;5092986;27;1233632;-58
2021/08/20 09:13:12;;;;;;;13.43;8.77;;;;;;;18.29;79.32;101541.72;5069133;28;20452;-59
2021/08/20 09:16:13;;;;;;;12.48;8.63;;;;;;;18.39;78.78;101542.69;5069531;28;20492;-59
2021/08/20 09:19:12;;;;;;;16.38;12.32;;;;;;;18.42;78.57;101542.06;5069342;28;20830;-57
2021/08/20 09:21:56;;;;;;;21.95;17.00;;;;;;;18.39;79.67;101557.28;5069546;28;20473;-57
2021/08/20 09:24:36;;;;;;;15.50;12.00;;;;;;;18.38;79.84;101552.09;5068285;28;20832;-57
2021/08/20 09:27:17;;;;;;;19.75;15.38;;;;;;;18.40;80.25;101555.34;5068564;28;20391;-58
2021/08/20 09:30:06;;;;;;;20.45;16.02;;;;;;;18.37;80.27;101550.44;5101739;27;1231593;-56
2021/08/20 09:32:53;;;;;;;18.27;14.15;;;;;;;18.40;80.04;101541.53;5069399;28;20391;-56
2021/08/20 09:35:39;;;;;;;13.27;10.30;;;;;;;18.47;79.05;101550.25;5069303;28;20386;-58
2021/08/20 09:38:21;;;;;;;14.05;9.20;;;;;;;18.49;79.38;101553.53;5069291;28;20439;-56
2021/08/20 09:41:02;;;;;;;20.58;16.75;;;;;;;18.53;78.87;101549.84;5094495;27;1226078;-58
2021/08/20 09:43:46;;;;;;;21.67;14.98;;;;;;;18.53;79.09;101547.09;5068485;28;20441;-57
2021/08/20 09:46:25;;;;;;;21.75;17.83;;;;;;;18.50;79.07;101549.66;5052340;28;20392;-56
2021/08/20 09:49:05;;;;;;;19.48;15.00;;;;;;;18.48;78.94;101558.22;5058180;28;20497;-58
2021/08/20 09:51:45;;;;;;;14.23;12.40;;;;;;;18.50;78.65;101557.94;5134122;27;1228736;-54
2021/08/20 09:54:26;;;;;;;22.15;17.80;;;;;;;18.48;78.53;101551.91;5106744;27;1228965;-59
2021/08/20 09:57:11;;;;;;;14.68;11.68;;;;;;;18.51;78.03;101563.13;5053838;28;20454;-58
2021/08/20 09:59:54;;;;;;;19.85;15.73;;;;;;;18.51;78.90;101557.63;5055776;28;20396;-56
2021/08/20 10:02:33;;;;;;;20.30;17.13;;;;;;;18.52;78.83;101561.22;5133657;27;1227143;-54
2021/08/20 10:05:14;;;;;;;20.40;17.30;;;;;;;18.50;78.10;101561.50;5063078;28;20453;-56
2021/08/20 10:07:54;;;;;;;19.23;15.80;;;;;;;18.49;77.93;101559.03;5069997;27;20393;-56
2021/08/20 10:10:35;;;;;;;21.48;18.90;;;;;;;18.47;78.31;101566.81;5059308;28;20383;-56
2021/08/20 10:13:17;;;;;;;26.00;20.08;;;;;;;18.46;78.56;101560.47;5061899;28;20914;-56
2021/08/20 10:16:00;;;;;;;23.90;19.33;;;;;;;18.48;79.05;101563.75;5077739;28;20385;-55
2021/08/20 10:18:32;;;;;;;20.15;17.73;;;;;;;18.51;79.07;101562.31;5063610;28;20526;-57
2021/08/20 10:21:01;;;;;;;22.38;16.85;;;;;;;18.53;77.91;101565.59;5062065;28;20051;-54
2021/08/20 10:23:31;;;;;;;19.50;15.68;;;;;;;18.57;77.58;101565.78;5071818;28;20044;-55
2021/08/20 10:25:59;;;;;;;29.35;21.00;;;;;;;18.63;76.86;101570.94;5077167;28;20042;-56
2021/08/20 10:28:27;;;;;;;22.48;18.20;;;;;;;18.66;76.74;101562.03;5073491;28;20032;-56
2021/08/20 10:30:55;;;;;;;30.25;21.02;;;;;;;18.70;76.33;101576.88;5076572;28;20051;-56
2021/08/20 10:33:31;;;;;;;41.58;29.40;;;;;;;18.70;76.64;101574.09;5063611;28;20037;-58
2021/08/20 10:36:02;;;;;;;21.70;18.17;;;;;;;18.68;77.02;101568.06;5076281;28;20044;-53
2021/08/20 10:38:53;;;;;;;22.33;18.50;;;;;;;18.67;76.76;101574.72;5073261;28;20029;-58
2021/08/20 10:41:22;;;;;;;21.92;19.23;;;;;;;18.68;76.05;101573.59;5072988;28;20070;-56
2021/08/20 10:44:11;;;;;;;23.17;20.05;;;;;;;18.69;75.94;101569.72;5064756;28;20444;-55
2021/08/20 10:46:58;;;;;;;82.30;45.78;;;;;;;18.72;75.55;101573.81;5059443;28;20384;-57
2021/08/20 10:49:45;;;;;;;34.22;26.23;;;;;;;18.81;75.64;101573.94;5063273;28;20456;-52
2021/08/20 10:52:28;;;;;;;27.70;21.67;;;;;;;18.84;74.92;101573.34;5068816;28;20445;-53
2021/08/20 10:55:10;;;;;;;24.50;19.83;;;;;;;18.86;74.36;101571.09;5068489;28;20449;-52
2021/08/20 10:57:52;;;;;;;24.60;20.83;;;;;;;18.97;74.29;101567.00;5007457;28;20731;-59
2021/08/20 11:00:38;;;;;;;71.18;38.55;;;;;;;19.09;74.43;101572.81;5063665;28;20841;-58
2021/08/20 11:03:39;;;;;;;63.38;37.10;;;;;;;19.18;74.27;101569.38;5090179;27;20343;-53
2021/08/20 11:06:55;;;;;;;37.90;28.25;;;;;;;19.30;74.04;101572.41;5081643;27;20392;-58
2021/08/20 11:09:42;;;;;;;55.88;37.13;;;;;;;19.34;74.11;101573.44;5062512;28;20390;-55
2021/08/20 11:12:42;;;;;;;152.85;84.13;;;;;;;19.39;73.54;101572.53;5104131;27;20338;-55
2021/08/20 11:15:24;;;;;;;28.25;23.40;;;;;;;19.37;73.62;101575.59;5100823;27;1239183;-55
2021/08/20 11:18:06;;;;;;;31.17;24.08;;;;;;;19.35;73.74;101577.84;5062729;28;20391;-55
2021/08/20 11:20:50;;;;;;;126.53;71.30;;;;;;;19.35;73.65;101575.06;5063827;28;20386;-53
2021/08/20 11:23:36;;;;;;;61.22;38.33;;;;;;;19.37;74.06;101583.88;5052710;28;20470;-55
2021/08/20 11:26:31;;;;;;;18.67;14.05;;;;;;;19.34;74.81;101581.75;5108431;27;1236066;-55
2021/08/20 11:29:13;;;;;;;51.13;29.67;;;;;;;19.34;74.47;101585.31;5063459;28;20141;-53
2021/08/20 11:32:04;;;;;;;17.25;13.02;;;;;;;19.36;74.56;101584.97;5061310;28;20441;-56
2021/08/20 11:34:32;;;;;;;51.17;30.85;;;;;;;19.43;73.94;101590.91;5049301;28;20041;-54
2021/08/20 11:37:04;;;;;;;15.23;9.13;;;;;;;19.46;73.79;101590.31;5049077;28;20045;-49
2021/08/20 11:39:32;;;;;;;45.70;27.10;;;;;;;19.52;73.49;101588.25;5048896;28;20037;-54
2021/08/20 11:42:10;;;;;;;17.55;13.02;;;;;;;19.54;72.99;101589.56;5049254;28;20049;-53
2021/08/20 11:44:41;;;;;;;22.00;14.75;;;;;;;19.56;72.29;101592.03;5049073;28;20048;-55
2021/08/20 11:47:16;;;;;;;14.80;12.63;;;;;;;19.58;72.38;101587.03;5049451;28;20638;-54
2021/08/20 11:49:43;;;;;;;47.25;27.80;;;;;;;19.62;72.23;101595.50;5048918;28;20033;-52
2021/08/20 11:52:11;;;;;;;17.52;14.88;;;;;;;19.63;71.88;101591.63;5047147;28;20037;-57
2021/08/20 11:54:40;;;;;;;33.90;23.25;;;;;;;19.67;71.80;101592.63;5047286;28;20048;-55
2021/08/20 11:57:08;;;;;;;18.05;13.88;;;;;;;19.67;72.08;101598.16;5048826;28;20524;-57
2021/08/20 11:59:36;;;;;;;15.20;13.15;;;;;;;19.65;71.89;101589.34;5049937;28;20041;-58
2021/08/20 12:02:04;;;;;;;14.65;12.55;;;;;;;19.70;72.35;101597.53;5049606;28;20139;-61
2021/08/20 12:04:37;;;;;;;17.80;12.43;;;;;;;19.66;72.38;101596.53;5049087;28;20072;-58
2021/08/20 12:07:07;;;;;;;15.20;11.50;;;;;;;19.63;72.76;101597.97;5048078;28;20084;-58